Time;durP1;ratioP1;P1;durP2;ratioP2;P2;SDS_P1;SDS_P2;PMS_P1;PMS_P2;Temp;Humidity;BMP_temperature;BMP_pressure;BME280_temperature;BME280_humidity;BME280_pressure;Samples;Min_cycle;Max_cycle;Signal;HPM_P1;HPM_P2
2023/10/18 00:00:28;;;;;;;;;10.75;7.50;;;;;14.11;56.47;99940.69;5112249;27;46639;-72
2023/10/18 00:02:54;;;;;;;;;19.00;14.75;;;;;14.13;56.66;99938.81;5114624;27;45846;-72
2023/10/18 00:05:21;;;;;;;;;21.00;18.00;;;;;14.11;56.59;99935.41;5121557;27;45354;-72
2023/10/18 00:07:48;;;;;;;;;14.25;12.50;;;;;14.11;56.44;99937.19;5101364;27;45478;-73
2023/10/18 00:10:17;;;;;;;;;12.00;9.00;;;;;14.10;56.69;99927.59;5109968;27;45620;-72
2023/10/18 00:12:44;;;;;;;;;8.00;6.00;;;;;14.08;56.68;99916.28;5124644;27;45575;-73
2023/10/18 00:15:11;;;;;;;;;11.00;8.00;;;;;14.08;56.78;99921.56;5115388;27;45548;-72
2023/10/18 00:17:37;;;;;;;;;10.00;7.50;;;;;14.07;56.50;99917.25;5098399;27;45337;-72
2023/10/18 00:20:06;;;;;;;;;7.75;6.75;;;;;14.04;56.80;99912.97;5118495;27;45749;-72
2023/10/18 00:22:32;;;;;;;;;11.00;6.00;;;;;14.06;56.99;99916.41;5116692;27;45461;-72
2023/10/18 00:24:57;;;;;;;;;9.75;9.25;;;;;14.02;56.45;99910.44;5136946;27;45370;-73
2023/10/18 00:27:25;;;;;;;;;8.00;6.75;;;;;14.04;56.93;99907.72;5116962;27;62869;-72
2023/10/18 00:29:53;;;;;;;;;12.25;7.25;;;;;14.03;57.08;99916.56;5116922;27;45464;-72
2023/10/18 00:32:20;;;;;;;;;8.00;6.25;;;;;14.00;56.67;99907.03;5112978;27;45730;-72
2023/10/18 00:34:45;;;;;;;;;12.00;8.00;;;;;13.99;57.14;99901.88;5118180;27;45473;-72
2023/10/18 00:37:11;;;;;;;;;6.75;5.50;;;;;14.01;56.83;99907.91;5125870;27;68421;-72
2023/10/18 00:39:36;;;;;;;;;9.25;7.50;;;;;13.98;56.73;99890.50;5116909;27;71527;-72
2023/10/18 00:44:50;;;;;;;;;13.75;9.50;;;;;13.97;56.78;99887.94;5125937;27;45473;-72
2023/10/18 00:47:16;;;;;;;;;11.50;9.00;;;;;13.97;56.64;99887.94;5121736;27;45737;-72
2023/10/18 00:49:42;;;;;;;;;12.25;10.25;;;;;13.94;56.79;99882.88;5102437;27;45232;-72
2023/10/18 00:52:08;;;;;;;;;13.75;11.00;;;;;13.93;56.85;99873.25;5097065;27;45320;-72
2023/10/18 00:54:33;;;;;;;;;14.00;9.75;;;;;13.96;56.85;99883.63;5099550;27;58396;-72
2023/10/18 00:56:59;;;;;;;;;11.00;10.00;;;;;13.93;56.90;99878.53;5105882;27;45624;-72
2023/10/18 00:59:27;;;;;;;;;9.50;8.00;;;;;13.92;56.83;99872.44;5114365;27;45541;-72
2023/10/18 01:02:14;;;;;;;;;33.00;27.50;;;;;13.92;56.78;99861.91;5117511;27;45948;-72
2023/10/18 01:04:40;;;;;;;;;8.50;7.00;;;;;13.91;56.74;99864.63;5103649;27;45556;-72
2023/10/18 01:07:15;;;;;;;;;8.75;8.00;;;;;13.91;56.81;99857.56;5115797;27;45657;-72
2023/10/18 01:09:48;;;;;;;;;10.50;7.50;;;;;13.90;57.07;99858.50;5111525;27;46470;-72
2023/10/18 01:12:15;;;;;;;;;7.75;6.50;;;;;13.89;57.01;99851.53;5120382;27;45458;-72
2023/10/18 01:14:41;;;;;;;;;4.25;2.25;;;;;13.89;57.01;99845.44;5117467;27;46858;-72
2023/10/18 01:17:07;;;;;;;;;7.50;6.25;;;;;13.85;57.30;99836.88;5117198;27;45468;-72
2023/10/18 01:19:33;;;;;;;;;9.50;7.25;;;;;13.86;57.42;99833.28;5114389;27;47318;-72
2023/10/18 01:21:59;;;;;;;;;8.00;6.75;;;;;13.86;57.11;99828.91;5113988;27;45837;-72
2023/10/18 01:24:34;;;;;;;;;7.75;7.00;;;;;13.86;56.76;99828.91;5109110;27;45587;-71
2023/10/18 01:27:00;;;;;;;;;7.25;6.00;;;;;13.83;57.28;99826.44;5118954;27;45689;-72
2023/10/18 01:29:26;;;;;;;;;10.00;8.25;;;;;13.84;57.31;99822.03;5116675;27;46658;-71
2023/10/18 01:31:54;;;;;;;;;8.75;6.75;;;;;13.82;56.91;99823.88;5107271;27;63451;-72
2023/10/18 01:34:19;;;;;;;;;7.25;7.25;;;;;13.81;57.05;99815.16;5113233;27;45737;-71
2023/10/18 01:36:46;;;;;;;;;11.25;7.00;;;;;13.81;56.97;99816.91;5117027;27;45452;-72
2023/10/18 01:39:20;;;;;;;;;6.25;6.00;;;;;13.80;57.07;99804.72;5117742;27;45403;-72
2023/10/18 01:41:50;;;;;;;;;6.50;6.50;;;;;13.78;56.94;99796.91;5110300;27;45737;-72
2023/10/18 01:44:30;;;;;;;;;10.25;7.25;;;;;13.79;56.93;99805.63;5121077;27;45535;-73
2023/10/18 01:47:07;;;;;;;;;8.25;5.00;;;;;13.77;57.02;99808.34;5107682;27;45295;-72
2023/10/18 01:49:38;;;;;;;;;8.75;6.50;;;;;13.75;57.27;99798.88;5101904;27;46607;-72
2023/10/18 01:52:04;;;;;;;;;8.75;7.00;;;;;13.75;57.21;99796.22;5117511;27;45312;-72
2023/10/18 01:54:30;;;;;;;;;9.00;7.00;;;;;13.74;57.12;99791.91;5095592;27;45466;-72
2023/10/18 01:56:57;;;;;;;;;10.50;8.75;;;;;13.73;57.12;99788.44;5115178;27;45318;-72
2023/10/18 01:59:27;;;;;;;;;5.00;5.00;;;;;13.75;56.99;99788.34;5109902;27;46244;-72
2023/10/18 02:01:53;;;;;;;;;7.00;7.00;;;;;13.74;57.46;99784.00;5104469;27;45655;-72
2023/10/18 02:04:25;;;;;;;;;9.25;6.50;;;;;13.72;56.93;99778.00;5118844;27;45642;-72
2023/10/18 02:06:59;;;;;;;;;7.00;7.00;;;;;13.75;57.24;99776.03;5114070;27;45460;-72
2023/10/18 02:09:32;;;;;;;;;7.25;6.25;;;;;13.75;57.24;99778.66;5113790;27;45323;-72
2023/10/18 02:11:57;;;;;;;;;10.00;7.00;;;;;13.75;56.99;99769.94;5108809;27;45448;-72
2023/10/18 02:14:24;;;;;;;;;7.75;6.25;;;;;13.77;56.96;99768.91;5117194;27;62342;-72
2023/10/18 02:16:49;;;;;;;;;8.25;7.75;;;;;13.79;57.17;99772.31;5116036;27;45547;-72
2023/10/18 02:19:18;;;;;;;;;7.50;7.00;;;;;13.82;56.80;99773.91;5108662;27;52849;-72
2023/10/18 02:21:43;;;;;;;;;7.00;6.00;;;;;13.81;57.02;99759.06;5111234;27;45509;-72
2023/10/18 02:24:11;;;;;;;;;6.50;5.75;;;;;13.80;56.83;99758.22;5115378;27;67381;-72
2023/10/18 02:26:39;;;;;;;;;10.00;7.50;;;;;13.80;56.82;99744.25;5120434;27;45740;-72
2023/10/18 02:29:13;;;;;;;;;7.00;5.00;;;;;13.80;57.00;99745.06;5118662;27;47263;-72
2023/10/18 02:31:40;;;;;;;;;9.00;8.00;;;;;13.80;57.47;99731.09;5106591;27;45412;-72
2023/10/18 02:34:05;;;;;;;;;8.00;7.50;;;;;13.75;56.92;99719.97;5111268;27;45473;-72
2023/10/18 02:36:38;;;;;;;;;9.75;8.00;;;;;13.76;56.73;99721.69;5111490;27;45365;-72
2023/10/18 02:39:06;;;;;;;;;8.75;7.50;;;;;13.74;56.69;99706.00;5116075;27;45553;-73
2023/10/18 02:41:34;;;;;;;;;7.75;6.25;;;;;13.75;57.25;99709.47;5105852;27;45473;-72
2023/10/18 02:44:00;;;;;;;;;7.75;6.25;;;;;13.75;57.09;99718.19;5119093;27;45775;-73
2023/10/18 02:46:25;;;;;;;;;7.50;6.25;;;;;13.75;57.38;99705.03;5094536;27;45529;-72
2023/10/18 02:48:55;;;;;;;;;9.25;7.00;;;;;13.75;57.04;99698.94;5121750;27;45550;-72
2023/10/18 02:51:24;;;;;;;;;9.75;7.00;;;;;13.75;56.69;99694.53;5114320;27;45493;-72
2023/10/18 02:53:51;;;;;;;;;8.75;7.50;;;;;13.77;56.84;99691.81;5134857;27;45440;-72
2023/10/18 02:56:33;;;;;;;;;9.50;6.25;;;;;13.76;56.90;99693.59;5116273;27;46861;-72
2023/10/18 02:59:06;;;;;;;;;9.25;6.50;;;;;13.76;56.95;99690.97;5123094;27;46244;-72
2023/10/18 03:01:32;;;;;;;;;9.00;7.00;;;;;13.76;56.86;99690.13;5112859;27;46471;-72
2023/10/18 03:04:00;;;;;;;;;8.50;7.25;;;;;13.75;57.05;99686.63;5110309;27;45462;-72
2023/10/18 03:06:28;;;;;;;;;8.75;8.00;;;;;13.75;56.74;99683.16;5105857;27;45478;-72
2023/10/18 03:08:57;;;;;;;;;8.75;6.00;;;;;13.74;56.93;99668.31;5112677;27;45454;-72
2023/10/18 03:11:23;;;;;;;;;8.25;6.00;;;;;13.75;56.94;99665.59;5117267;27;45873;-72
2023/10/18 03:13:51;;;;;;;;;3.25;3.25;;;;;13.74;57.00;99665.69;5114754;27;45576;-72
2023/10/18 03:16:18;;;;;;;;;6.50;5.75;;;;;13.66;56.83;99648.56;5112363;27;45549;-72
2023/10/18 03:18:44;;;;;;;;;6.75;6.00;;;;;13.68;56.78;99648.47;5108218;27;45310;-72
2023/10/18 03:21:13;;;;;;;;;6.50;6.25;;;;;13.68;56.74;99645.84;5133165;27;45437;-72
2023/10/18 03:23:44;;;;;;;;;9.25;6.50;;;;;13.66;57.16;99638.06;5119854;27;45279;-72
2023/10/18 03:26:13;;;;;;;;;6.00;6.00;;;;;13.64;56.89;99633.81;5105508;27;46304;-72
2023/10/18 03:28:43;;;;;;;;;8.50;7.25;;;;;13.63;57.37;99633.00;5116005;27;45400;-72
2023/10/18 03:31:21;;;;;;;;;6.75;6.50;;;;;13.59;57.39;99631.44;5116794;27;45489;-72
2023/10/18 03:33:59;;;;;;;;;9.50;6.00;;;;;13.62;57.24;99654.09;5107040;27;45537;-73
2023/10/18 03:36:26;;;;;;;;;5.00;3.25;;;;;13.60;57.19;99658.59;5114240;27;45367;-74
2023/10/18 03:38:54;;;;;;;;;7.25;5.50;;;;;13.58;57.22;99648.19;5114422;27;45816;-73
2023/10/18 03:41:22;;;;;;;;;8.25;5.00;;;;;13.60;57.23;99656.81;5118314;27;45810;-73
2023/10/18 03:43:49;;;;;;;;;7.00;5.00;;;;;13.61;57.12;99653.25;5121112;27;45556;-74
2023/10/18 03:46:29;;;;;;;;;8.75;6.75;;;;;13.64;57.41;99657.50;5116293;27;45662;-73
2023/10/18 03:48:54;;;;;;;;;9.25;6.75;;;;;13.69;57.28;99668.59;5114782;27;46490;-74
2023/10/18 03:51:26;;;;;;;;;10.25;6.50;;;;;13.71;57.46;99658.84;5090445;27;45278;-73
2023/10/18 03:53:53;;;;;;;;;8.25;6.25;;;;;13.75;57.58;99664.75;5114808;27;45408;-73
2023/10/18 03:56:21;;;;;;;;;9.00;7.25;;;;;13.78;56.99;99659.34;5116689;27;45224;-73
2023/10/18 03:59:00;;;;;;;;;10.00;6.75;;;;;13.80;57.58;99655.66;5120196;27;46435;-73
2023/10/18 04:01:26;;;;;;;;;9.50;8.00;;;;;13.86;57.46;99657.09;5112104;27;45796;-74
2023/10/18 04:03:52;;;;;;;;;8.25;6.25;;;;;13.90;57.50;99649.88;5118570;27;45498;-74
2023/10/18 04:06:28;;;;;;;;;6.75;6.00;;;;;13.92;57.27;99648.03;5111940;27;45582;-74
2023/10/18 04:08:58;;;;;;;;;8.75;6.75;;;;;13.94;56.88;99631.19;5124266;27;45657;-73
2023/10/18 04:11:26;;;;;;;;;5.50;5.50;;;;;13.98;57.20;99632.69;5122337;27;45479;-74
2023/10/18 04:13:51;;;;;;;;;6.75;5.75;;;;;14.02;57.32;99631.59;5115349;27;45217;-73
2023/10/18 04:16:17;;;;;;;;;6.50;6.00;;;;;14.06;57.02;99632.28;5117665;27;45363;-74
2023/10/18 04:18:43;;;;;;;;;8.00;6.50;;;;;14.09;56.78;99626.81;5116398;27;45323;-73
2023/10/18 04:21:15;;;;;;;;;7.25;7.00;;;;;14.11;57.04;99621.47;5097967;27;61543;-73
2023/10/18 04:23:45;;;;;;;;;7.50;7.25;;;;;14.14;57.19;99613.38;5103700;27;45489;-73
2023/10/18 04:26:15;;;;;;;;;10.25;7.00;;;;;14.15;57.06;99615.94;5119085;27;45507;-74
2023/10/18 04:28:42;;;;;;;;;7.00;6.00;;;;;14.14;57.22;99605.50;5112341;27;45524;-73
2023/10/18 04:31:11;;;;;;;;;12.50;8.25;;;;;14.14;57.28;99611.59;5112909;27;46590;-74
2023/10/18 04:33:48;;;;;;;;;11.00;8.25;;;;;14.15;57.56;99612.47;5117098;27;45442;-74
2023/10/18 04:36:15;;;;;;;;;13.00;9.00;;;;;14.14;57.76;99603.69;5111859;27;45439;-73
2023/10/18 04:38:44;;;;;;;;;6.00;6.00;;;;;14.15;58.02;99613.31;5121376;27;47308;-73
2023/10/18 04:44:10;;;;;;;;;10.00;8.00;;;;;14.14;58.82;99587.06;5112032;27;45478;-73
2023/10/18 04:46:36;;;;;;;;;8.00;5.75;;;;;14.13;59.04;99572.22;5112852;27;45333;-73
2023/10/18 04:49:16;;;;;;;;;6.25;6.00;;;;;14.10;59.04;99570.63;5113758;27;61371;-73
2023/10/18 04:54:08;;;;;;;;;8.75;8.50;;;;;14.05;59.45;99559.53;5114258;27;45337;-73
2023/10/18 04:56:46;;;;;;;;;10.00;8.00;;;;;14.04;59.14;99557.84;5093249;27;45484;-73
2023/10/18 05:04:29;;;;;;;;;8.00;8.00;;;;;14.00;59.53;99548.44;5117613;27;45531;-73
2023/10/18 05:06:56;;;;;;;;;8.00;8.00;;;;;13.95;59.67;99532.97;5116655;27;45487;-73
2023/10/18 05:09:32;;;;;;;;;8.00;6.00;;;;;14.00;59.63;99544.03;5116659;27;45664;-73
2023/10/18 05:11:59;;;;;;;;;14.00;9.00;;;;;13.98;60.31;99539.81;5112144;27;45527;-73
2023/10/18 05:14:40;;;;;;;;;7.75;7.50;;;;;13.97;59.97;99546.00;5114995;27;45492;-73
2023/10/18 05:17:17;;;;;;;;;7.25;5.50;;;;;13.95;60.11;99538.22;5117314;27;46536;-73
2023/10/18 05:19:42;;;;;;;;;7.50;7.25;;;;;13.91;60.81;99533.22;5102875;27;48324;-73
2023/10/18 05:22:23;;;;;;;;;14.00;8.50;;;;;13.91;60.25;99528.78;5114313;27;45587;-73
2023/10/18 05:24:55;;;;;;;;;9.00;7.00;;;;;13.86;60.37;99525.59;5118215;27;45272;-73
2023/10/18 05:27:24;;;;;;;;;9.50;8.25;;;;;13.89;60.77;99530.69;5103374;27;45554;-73
2023/10/18 05:29:58;;;;;;;;;9.25;7.75;;;;;13.86;61.04;99515.94;5101780;27;47082;-73
2023/10/18 05:35:03;;;;;;;;;9.75;8.00;;;;;13.80;61.13;99510.19;5118952;27;45564;-73
2023/10/18 05:37:32;;;;;;;;;8.25;7.75;;;;;13.84;61.00;99511.69;5111043;27;45307;-73
2023/10/18 05:42:46;;;;;;;;;9.75;8.25;;;;;13.84;61.21;99520.44;5103150;27;45936;-73
2023/10/18 05:45:12;;;;;;;;;9.00;8.75;;;;;13.86;61.19;99509.81;5097236;27;45305;-73
2023/10/18 05:47:37;;;;;;;;;10.50;7.75;;;;;13.86;61.32;99507.19;5113077;27;45513;-73
2023/10/18 05:50:04;;;;;;;;;11.25;7.50;;;;;13.87;61.37;99506.25;5117950;27;45664;-68
2023/10/18 05:52:38;;;;;;;;;9.50;7.75;;;;;13.90;61.75;99502.59;5126616;27;45801;-70
2023/10/18 05:55:08;;;;;;;;;10.25;9.00;;;;;13.94;61.74;99509.38;5099012;27;45564;-68
2023/10/18 05:57:34;;;;;;;;;12.50;8.25;;;;;13.91;61.19;99512.19;5105220;27;45718;-73
2023/10/18 06:00:00;;;;;;;;;10.00;9.25;;;;;13.94;61.59;99507.59;5119199;27;45590;-69
2023/10/18 06:02:25;;;;;;;;;13.00;8.50;;;;;13.97;61.21;99501.28;5110996;27;71200;-71
2023/10/18 06:04:51;;;;;;;;;9.50;8.00;;;;;13.96;61.30;99503.06;5117521;27;45307;-71
2023/10/18 06:07:22;;;;;;;;;9.00;7.25;;;;;14.00;61.72;99509.81;5099797;27;45515;-69
2023/10/18 06:09:54;;;;;;;;;7.00;7.00;;;;;14.03;61.46;99508.81;5090745;27;46254;-70
2023/10/18 06:12:23;;;;;;;;;8.50;8.00;;;;;14.03;61.21;99509.66;5111636;27;45427;-72
2023/10/18 06:14:52;;;;;;;;;13.25;7.25;;;;;14.07;61.24;99512.09;5119581;27;45384;-71
2023/10/18 06:17:46;;;;;;;;;10.25;8.00;;;;;14.11;61.33;99516.22;5120471;27;45347;-72
2023/10/18 06:20:14;;;;;;;;;12.50;9.00;;;;;14.11;61.23;99513.59;5108162;27;47222;-72
2023/10/18 06:22:43;;;;;;;;;10.00;8.00;;;;;14.11;61.33;99511.81;5114471;27;45823;-72
2023/10/18 06:25:25;;;;;;;;;11.00;7.25;;;;;14.15;61.65;99512.47;5116668;27;45638;-74
2023/10/18 06:27:50;;;;;;;;;10.00;9.00;;;;;14.16;61.64;99516.78;5118375;27;45242;-70
2023/10/18 06:30:17;;;;;;;;;11.25;8.75;;;;;14.19;61.41;99521.88;5118203;27;45635;-71
2023/10/18 06:32:44;;;;;;;;;10.00;8.00;;;;;14.23;61.64;99513.66;5105953;27;45545;-68
2023/10/18 06:35:17;;;;;;;;;8.00;8.00;;;;;14.27;61.49;99501.19;5120072;27;45417;-69
2023/10/18 06:37:44;;;;;;;;;10.50;9.50;;;;;14.27;61.64;99493.31;5125370;27;45834;-72
2023/10/18 06:42:57;;;;;;;;;12.00;8.25;;;;;14.31;60.99;99475.53;5121780;27;45894;-70
2023/10/18 06:45:25;;;;;;;;;8.50;8.50;;;;;14.31;61.52;99478.16;5114825;27;45359;-71
2023/10/18 06:47:54;;;;;;;;;9.25;8.25;;;;;14.33;61.33;99476.28;5102380;27;45549;-70
2023/10/18 06:50:26;;;;;;;;;10.75;9.00;;;;;14.33;61.30;99468.38;5121167;27;46571;-72
2023/10/18 06:52:52;;;;;;;;;11.00;9.75;;;;;14.32;61.16;99470.16;5123720;27;45439;-69
2023/10/18 07:00:53;;;;;;;;;9.75;9.00;;;;;14.31;61.32;99468.47;5123355;27;45853;-68
2023/10/18 07:03:24;;;;;;;;;10.00;8.00;;;;;14.34;61.08;99476.19;5103909;27;46731;-68
2023/10/18 07:05:51;;;;;;;;;8.75;8.75;;;;;14.33;61.48;99460.50;5144671;27;45549;-70
2023/10/18 07:08:19;;;;;;;;;9.75;8.50;;;;;14.32;61.45;99461.41;5115420;27;45550;-69
2023/10/18 07:10:56;;;;;;;;;11.00;9.00;;;;;14.31;61.35;99439.53;5099972;27;46628;-69
2023/10/18 07:13:42;;;;;;;;;14.00;7.00;;;;;14.33;61.36;99424.47;5132729;27;45264;-68
2023/10/18 07:16:24;;;;;;;;;12.00;10.50;;;;;14.33;61.25;99426.28;5134891;27;45390;-70
2023/10/18 07:19:03;;;;;;;;;11.00;9.00;;;;;14.33;61.90;99406.06;5119989;27;45264;-70
2023/10/18 07:21:32;;;;;;;;;7.75;7.25;;;;;14.34;61.54;99399.88;5102504;27;46714;-69
2023/10/18 07:23:57;;;;;;;;;12.50;10.00;;;;;14.38;61.73;99408.41;5130617;27;45699;-71
2023/10/18 07:26:24;;;;;;;;;10.00;8.50;;;;;14.42;61.70;99425.69;5121108;27;45231;-69
2023/10/18 07:28:50;;;;;;;;;8.75;7.00;;;;;14.49;61.57;99432.25;5127142;27;45554;-69
2023/10/18 07:31:18;;;;;;;;;14.50;10.00;;;;;14.54;61.38;99435.44;5128767;27;47878;-69
2023/10/18 07:33:44;;;;;;;;;10.00;9.25;;;;;14.60;61.80;99427.16;5129289;27;45306;-72
2023/10/18 07:36:12;;;;;;;;;11.75;9.50;;;;;14.66;61.50;99425.94;5117116;27;45260;-69
2023/10/18 07:38:46;;;;;;;;;11.75;11.00;;;;;14.70;61.59;99421.31;5124067;27;45569;-69
2023/10/18 07:41:12;;;;;;;;;10.75;9.00;;;;;14.74;61.10;99423.63;5093882;27;47126;-70
2023/10/18 07:43:37;;;;;;;;;9.50;8.50;;;;;14.80;61.30;99419.75;5113385;27;45411;-70
2023/10/18 07:46:09;;;;;;;;;8.25;8.00;;;;;14.91;61.27;99432.19;5113516;27;58631;-76
2023/10/18 07:48:38;;;;;;;;;9.00;8.00;;;;;14.96;61.30;99430.13;5110812;27;45527;-70
2023/10/18 07:51:12;;;;;;;;;10.00;8.00;;;;;15.02;61.15;99424.44;5111836;27;46313;-72
2023/10/18 07:53:41;;;;;;;;;10.50;9.00;;;;;15.13;61.08;99426.38;5103386;27;45889;-72
2023/10/18 07:56:07;;;;;;;;;8.00;8.00;;;;;15.19;61.04;99412.75;5120775;27;45436;-73
2023/10/18 07:58:32;;;;;;;;;10.50;9.75;;;;;15.27;60.62;99404.38;5099437;27;45444;-70
2023/10/18 08:03:27;;;;;;;;;10.25;8.50;;;;;15.42;60.63;99394.56;5117316;27;45362;-68
2023/10/18 08:05:53;;;;;;;;;9.50;9.25;;;;;15.50;60.04;99389.59;5116394;27;45329;-68
2023/10/18 08:08:18;;;;;;;;;9.25;8.75;;;;;15.58;60.52;99392.53;5109472;27;45317;-68
2023/10/18 08:10:44;;;;;;;;;7.00;6.75;;;;;15.63;60.02;99379.88;5108603;27;56030;-69
2023/10/18 08:13:09;;;;;;;;;10.50;7.75;;;;;15.69;60.14;99355.72;5121664;27;68895;-68
2023/10/18 08:15:37;;;;;;;;;9.50;8.25;;;;;15.77;60.12;99362.28;5116471;27;45175;-72
2023/10/18 08:18:14;;;;;;;;;6.75;6.50;;;;;15.84;59.96;99366.19;5120434;27;45701;-71
2023/10/18 08:26:05;;;;;;;;;11.75;7.75;;;;;16.09;59.51;99352.91;5118106;27;45426;-71
2023/10/18 08:28:46;;;;;;;;;7.75;7.50;;;;;16.26;59.35;99356.13;5117814;27;45583;-71
2023/10/18 08:31:32;;;;;;;;;8.75;8.00;;;;;16.39;59.42;99361.34;5116600;27;46373;-71
2023/10/18 08:34:05;;;;;;;;;9.50;6.75;;;;;16.50;59.16;99361.41;5102548;27;45876;-68
2023/10/18 08:36:33;;;;;;;;;11.00;8.00;;;;;16.58;59.27;99356.41;5115873;27;45341;-70
2023/10/18 08:39:01;;;;;;;;;6.50;6.50;;;;;16.62;59.11;99349.94;5124272;27;45262;-72
2023/10/18 08:41:34;;;;;;;;;7.75;7.00;;;;;16.66;58.67;99351.41;5101731;27;47077;-70
2023/10/18 08:44:16;;;;;;;;;11.75;8.00;;;;;16.72;58.75;99344.81;5109548;27;45292;-71
2023/10/18 08:46:52;;;;;;;;;6.50;6.50;;;;;16.73;58.46;99327.16;5103656;27;45394;-69
2023/10/18 08:49:22;;;;;;;;;7.50;7.00;;;;;16.73;58.55;99329.78;5104118;27;45913;-70
2023/10/18 08:51:54;;;;;;;;;8.50;7.25;;;;;16.74;58.83;99334.13;5119413;27;46915;-69
2023/10/18 08:54:22;;;;;;;;;82.75;69.25;;;;;16.80;58.69;99345.09;5108903;27;45786;-69
2023/10/18 08:56:48;;;;;;;;;33.00;23.25;;;;;16.82;58.51;99331.75;5101681;27;45481;-71
2023/10/18 08:59:18;;;;;;;;;8.00;8.00;;;;;16.87;58.36;99326.97;5088431;27;45469;-71
2023/10/18 09:02:09;;;;;;;;;9.75;6.25;;;;;16.91;58.77;99309.97;5103452;27;45705;-69
2023/10/18 09:04:31;;;;;;;;;6.50;6.00;;;;;16.98;58.39;99316.47;5118737;27;45975;-68
2023/10/18 09:06:59;;;;;;;;;7.00;7.00;;;;;17.07;58.44;99323.69;5116828;27;45380;-69
2023/10/18 09:09:25;;;;;;;;;8.75;8.00;;;;;17.15;58.57;99317.78;5121673;27;45282;-70
2023/10/18 09:11:51;;;;;;;;;9.50;7.50;;;;;17.26;58.35;99320.47;5114978;27;45552;-70
2023/10/18 09:14:16;;;;;;;;;10.50;5.50;;;;;17.31;58.28;99306.88;5115668;27;45705;-72
2023/10/18 09:16:46;;;;;;;;;7.75;7.00;;;;;17.40;57.92;99308.78;5104940;27;59168;-72
2023/10/18 09:19:12;;;;;;;;;6.50;6.50;;;;;17.49;58.04;99301.09;5115062;27;45553;-70
2023/10/18 09:21:56;;;;;;;;;8.50;7.50;;;;;17.57;57.88;99296.88;5128746;27;48284;-70
2023/10/18 09:24:23;;;;;;;;;8.75;7.25;;;;;17.69;57.74;99302.16;5100947;27;45534;-70
2023/10/18 09:26:50;;;;;;;;;9.50;7.25;;;;;17.76;57.73;99300.69;5107005;27;45352;-70
2023/10/18 09:29:17;;;;;;;;;12.25;9.00;;;;;17.84;57.58;99299.13;5120021;27;45428;-70
2023/10/18 09:31:52;;;;;;;;;9.00;9.00;;;;;17.93;57.46;99297.56;5094131;27;48323;-68
2023/10/18 09:34:18;;;;;;;;;10.25;7.00;;;;;18.00;57.17;99301.41;5102904;27;45490;-69
2023/10/18 09:36:54;;;;;;;;;7.00;6.25;;;;;18.07;57.24;99296.47;5116723;27;45488;-69
2023/10/18 09:39:21;;;;;;;;;9.25;7.50;;;;;18.13;57.14;99301.28;5102225;27;45721;-70
2023/10/18 09:41:47;;;;;;;;;8.75;7.75;;;;;18.21;57.20;99309.41;5112262;27;45499;-70
2023/10/18 09:44:13;;;;;;;;;9.25;7.50;;;;;18.27;56.99;99297.47;5108622;27;45719;-69
2023/10/18 09:46:38;;;;;;;;;6.25;5.75;;;;;18.32;56.78;99286.50;5115351;27;45383;-70
2023/10/18 09:49:09;;;;;;;;;7.00;6.00;;;;;18.35;56.75;99283.63;5106472;27;45652;-70
2023/10/18 09:51:35;;;;;;;;;7.50;5.00;;;;;18.46;57.09;99293.31;5115128;27;45570;-73
2023/10/18 09:54:07;;;;;;;;;6.50;6.50;;;;;18.50;56.91;99277.06;5097924;27;45764;-74
2023/10/18 09:56:33;;;;;;;;;11.00;7.75;;;;;18.52;56.71;99268.94;5101504;27;45359;-74
2023/10/18 09:59:08;;;;;;;;;6.75;5.25;;;;;18.48;56.77;99271.03;5105382;27;45270;-75
2023/10/18 10:04:11;;;;;;;;;8.75;6.00;;;;;18.49;56.66;99264.75;5117032;27;45271;-75
2023/10/18 10:06:45;;;;;;;;;5.75;5.75;;;;;18.49;56.71;99250.69;5100751;27;45675;-72
2023/10/18 10:11:43;;;;;;;;;8.75;7.00;;;;;18.45;56.56;99246.59;5102243;27;45723;-75
2023/10/18 10:14:10;;;;;;;;;8.00;8.00;;;;;18.42;56.83;99245.06;5095073;27;45698;-69
2023/10/18 10:16:37;;;;;;;;;7.25;7.25;;;;;18.40;56.74;99233.75;5115023;27;45527;-71
2023/10/18 10:19:11;;;;;;;;;7.75;5.75;;;;;18.37;56.71;99234.84;5102282;27;45417;-71
2023/10/18 10:21:36;;;;;;;;;9.00;7.00;;;;;18.34;56.86;99243.06;5088827;27;46365;-75
2023/10/18 10:24:29;;;;;;;;;10.75;8.00;;;;;18.36;57.30;99246.41;5093774;27;45560;-70
2023/10/18 10:26:51;;;;;;;;;10.75;7.50;;;;;18.38;57.22;99239.19;5116639;27;45339;-70
2023/10/18 10:31:57;;;;;;;;;6.50;6.00;;;;;18.51;57.18;99233.69;5107737;27;45414;-72
2023/10/18 10:34:27;;;;;;;;;9.25;6.50;;;;;18.57;57.11;99224.38;5127248;27;45393;-70
2023/10/18 10:37:18;;;;;;;;;9.50;8.25;;;;;18.68;57.32;99216.38;5106627;27;45477;-70
2023/10/18 10:39:45;;;;;;;;;8.00;6.50;;;;;18.79;56.91;99218.94;5123886;27;45405;-73
2023/10/18 10:42:29;;;;;;;;;9.50;8.75;;;;;18.93;57.12;99219.59;5116541;27;46206;-76
2023/10/18 10:47:46;;;;;;;;;7.00;5.50;;;;;19.12;56.77;99216.19;5114344;27;45323;-70
2023/10/18 10:50:45;;;;;;;;;9.25;7.50;;;;;19.16;57.13;99210.47;5113997;27;45382;-74
2023/10/18 10:53:15;;;;;;;;;8.00;6.00;;;;;19.20;56.61;99205.75;5128919;27;46440;-70
2023/10/18 10:55:43;;;;;;;;;6.75;6.00;;;;;19.20;56.29;99197.78;5119208;27;45672;-68
2023/10/18 10:58:16;;;;;;;;;10.00;7.25;;;;;19.18;56.56;99181.19;5116233;27;45427;-69
2023/10/18 11:01:31;;;;;;;;;6.00;6.00;;;;;19.25;56.58;99195.56;5101881;27;45525;-70
2023/10/18 11:03:59;;;;;;;;;9.25;7.00;;;;;19.24;56.72;99185.09;5053861;28;45674;-70
2023/10/18 11:06:32;;;;;;;;;10.75;9.50;;;;;19.22;56.78;99179.09;5099808;27;45459;-67
2023/10/18 11:08:58;;;;;;;;;9.50;7.75;;;;;19.15;56.57;99176.97;5101810;27;45381;-67
2023/10/18 11:11:27;;;;;;;;;20.00;17.25;;;;;19.04;57.37;99166.47;5117994;27;45464;-68
2023/10/18 11:13:53;;;;;;;;;9.75;9.25;;;;;19.07;57.37;99160.91;5093268;27;47521;-67
2023/10/18 11:16:22;;;;;;;;;26.50;22.25;;;;;19.07;57.07;99163.56;5121305;27;45479;-73
2023/10/18 11:18:49;;;;;;;;;10.25;9.00;;;;;19.06;57.57;99158.41;5117509;27;45507;-74
2023/10/18 11:21:29;;;;;;;;;9.50;8.00;;;;;19.03;57.93;99156.81;5111227;27;45622;-74
2023/10/18 11:26:51;;;;;;;;;10.75;7.75;;;;;19.01;57.86;99150.00;5104821;27;45282;-75
2023/10/18 11:29:24;;;;;;;;;12.00;9.00;;;;;18.99;58.42;99138.69;5094843;27;45388;-77
2023/10/18 11:31:50;;;;;;;;;9.00;6.25;;;;;18.96;58.42;99138.00;5110906;27;46582;-76
2023/10/18 11:34:21;;;;;;;;;7.75;5.75;;;;;18.94;58.66;99124.00;5115635;27;45496;-76
2023/10/18 11:36:49;;;;;;;;;11.25;10.00;;;;;18.93;59.13;99124.16;5085499;27;45898;-77
2023/10/18 11:41:44;;;;;;;;;10.50;6.50;;;;;18.95;59.47;99120.41;5128489;27;45678;-78
2023/10/18 11:44:16;;;;;;;;;9.50;8.25;;;;;18.95;59.34;99112.44;5104809;27;48206;-79
2023/10/18 11:46:51;;;;;;;;;12.50;8.50;;;;;18.93;59.51;99095.84;5105229;27;45938;-79
2023/10/18 11:49:20;;;;;;;;;16.00;8.00;;;;;18.95;59.91;99090.41;5102403;27;45482;-79
2023/10/18 11:51:48;;;;;;;;;9.00;6.25;;;;;19.00;60.03;99089.97;5110315;27;45445;-78
2023/10/18 11:54:35;;;;;;;;;11.50;9.00;;;;;19.01;60.73;99083.72;5120895;27;47148;-76
2023/10/18 11:57:07;;;;;;;;;8.50;8.25;;;;;18.99;60.17;99083.03;5117957;27;45769;-75
2023/10/18 11:59:50;;;;;;;;;9.00;7.00;;;;;18.92;60.39;99065.00;5110984;27;45225;-79
2023/10/18 12:02:15;;;;;;;;;8.00;5.25;;;;;18.96;60.86;99069.06;5115106;27;45363;-79
2023/10/18 12:04:41;;;;;;;;;8.25;8.25;;;;;18.89;60.93;99065.28;5115016;27;70044;-79
2023/10/18 12:07:08;;;;;;;;;10.25;7.00;;;;;18.85;61.26;99057.72;5104664;27;45345;-77
2023/10/18 12:09:55;;;;;;;;;49.00;37.75;;;;;18.75;61.60;99045.28;5105588;27;45327;-75
2023/10/18 12:12:19;;;;;;;;;24.50;16.00;;;;;18.79;61.82;99053.78;5104787;27;45551;-75
2023/10/18 12:14:46;;;;;;;;;11.75;10.50;;;;;18.70;61.80;99042.19;5103951;27;45379;-74
2023/10/18 12:17:13;;;;;;;;;12.25;9.00;;;;;18.69;62.07;99043.16;5101652;27;45374;-75
2023/10/18 12:19:39;;;;;;;;;12.00;11.00;;;;;18.68;62.39;99037.97;5127052;27;45421;-74
2023/10/18 12:22:05;;;;;;;;;11.00;8.00;;;;;18.64;62.58;99034.75;5113194;27;45481;-75
2023/10/18 12:24:33;;;;;;;;;10.00;9.00;;;;;18.65;62.91;99027.66;5107825;27;46692;-76
2023/10/18 12:29:52;;;;;;;;;11.50;8.00;;;;;18.67;63.35;99028.38;5108845;27;45445;-77
2023/10/18 12:32:25;;;;;;;;;9.00;7.50;;;;;18.70;63.34;99012.19;5106011;27;65000;-73
2023/10/18 12:35:07;;;;;;;;;10.00;8.00;;;;;18.74;63.88;99008.28;5110174;27;45402;-80